| time (UTC) | temp F | wind direction | speed MPH | gust MPH | rain 1hr in | rain 24hr in | rain mn in | humidity % | barometer mb |
| 20260509022239 | 43 | 319 | 4.0 | 5.0 | 0.00 | 0.00 | 0.00 | 66 | 1019.0 |
| 20260509021739 | 43 | 235 | 3.0 | 4.0 | 0.00 | 0.00 | 0.00 | 66 | 1018.0 |
| 20260509021239 | 43 | 349 | 1.0 | 2.0 | 0.00 | 0.00 | 0.00 | 66 | 1018.0 |
| 20260509020739 | 43 | 2 | 2.0 | 3.0 | 0.00 | 0.00 | 0.00 | 65 | 1018.0 |
| 20260509020239 | 43 | 334 | 4.0 | 6.0 | 0.00 | 0.00 | 0.00 | 64 | 1018.0 |
| 20260509015740 | 43 | 1 | 2.0 | 4.0 | 0.00 | 0.00 | 0.00 | 64 | 1018.0 |
| 20260509015239 | 43 | 4 | 4.0 | 7.0 | 0.00 | 0.00 | 0.00 | 66 | 1018.0 |
| 20260509014739 | 43 | 3 | 5.0 | 9.0 | 0.00 | 0.00 | 0.00 | 65 | 1018.0 |
| 20260509014239 | 43 | 2 | 5.0 | 10.0 | 0.00 | 0.00 | 0.00 | 66 | 1018.0 |
| 20260509013739 | 43 | 353 | 6.0 | 11.0 | 0.00 | 0.00 | 0.00 | 65 | 1017.0 |
| 20260509013239 | 43 | 3 | 5.0 | 9.0 | 0.00 | 0.00 | 0.00 | 65 | 1017.0 |
| 20260509012739 | 43 | 2 | 6.0 | 12.0 | 0.00 | 0.00 | 0.00 | 65 | 1017.0 |
| 20260509012240 | 42 | 1 | 8.0 | 17.0 | 0.00 | 0.00 | 0.00 | 66 | 1017.0 |
| 20260509011739 | 42 | 17 | 6.0 | 11.0 | 0.00 | 0.00 | 0.00 | 66 | 1016.0 |
| 20260509011239 | 42 | 355 | 5.0 | 10.0 | 0.00 | 0.00 | 0.00 | 67 | 1016.0 |
| 20260509010740 | 42 | 19 | 4.0 | 6.0 | 0.00 | 0.00 | 0.00 | 67 | 1016.0 |
| 20260509010239 | 43 | 12 | 5.0 | 12.0 | 0.00 | 0.00 | 0.00 | 67 | 1016.0 |
| 20260509005739 | 43 | 5 | 4.0 | 11.0 | 0.00 | 0.00 | 0.00 | 67 | 1016.0 |
| 20260509005239 | 43 | 10 | 4.0 | 8.0 | 0.00 | 0.00 | 0.00 | 67 | 1016.0 |
| 20260509004739 | 44 | 7 | 6.0 | 11.0 | 0.00 | 0.00 | 0.00 | 65 | 1016.0 |
| 20260509004239 | 43 | 11 | 5.0 | 9.0 | 0.00 | 0.00 | 0.00 | 64 | 1016.0 |
| 20260509003739 | 43 | 193 | 1.0 | 2.0 | 0.00 | 0.00 | 0.00 | 66 | 1015.0 |
| 20260509003239 | 42 | 187 | 2.0 | 3.0 | 0.00 | 0.00 | 0.00 | 65 | 1015.0 |
| 20260509002739 | 41 | 189 | 2.0 | 3.0 | 0.00 | 0.00 | 0.00 | 70 | 1015.0 |
| 20260509002239 | 41 | 202 | 2.0 | 3.0 | 0.00 | 0.00 | 0.00 | 75 | 1015.0 |
| 20260509001739 | 40 | 208 | 2.0 | 3.0 | 0.00 | 0.00 | 0.00 | 76 | 1014.0 |
| 20260509001239 | 40 | 202 | 2.0 | 3.0 | 0.00 | 0.00 | 0.00 | 75 | 1014.0 |
| 20260509000739 | 39 | 191 | 0.0 | 0.0 | 0.00 | 0.00 | 0.00 | 78 | 1014.0 |
| 20260509000241 | 38 | 253 | 0.0 | 0.0 | 0.00 | 0.00 | 0.00 | 78 | 1014.0 |
| 20260508235739 | 38 | 320 | 1.0 | 2.0 | 0.00 | 0.00 | 0.00 | 78 | 1014.0 |
| 20260508235239 | 38 | 216 | 1.0 | 2.0 | 0.00 | 0.00 | 0.00 | 78 | 1014.0 |
| 20260508234739 | 38 | 238 | 0.0 | 1.0 | 0.00 | 0.00 | 0.00 | 79 | 1013.0 |
| 20260508234240 | 38 | 224 | 0.0 | 1.0 | 0.00 | 0.00 | 0.00 | 77 | 1013.0 |
| 20260508233739 | 38 | 287 | 1.0 | 2.0 | 0.00 | 0.00 | 0.00 | 75 | 1013.0 |
| 20260508233239 | 38 | 283 | 1.0 | 2.0 | 0.00 | 0.00 | 0.00 | 76 | 1013.0 |
| 20260508232739 | 38 | 301 | 0.0 | 1.0 | 0.00 | 0.00 | 0.00 | 76 | 1013.0 |
| 20260508232240 | 39 | 273 | 2.0 | 2.0 | 0.00 | 0.00 | 0.00 | 75 | 1013.0 |
| 20260508231739 | 39 | 280 | 1.0 | 2.0 | 0.00 | 0.00 | 0.00 | 73 | 1013.0 |
| 20260508231239 | 39 | 328 | 1.0 | 2.0 | 0.00 | 0.00 | 0.00 | 75 | 1012.0 |
| 20260508230740 | 40 | 297 | 1.0 | 2.0 | 0.00 | 0.00 | 0.00 | 73 | 1012.0 |
| 20260508230240 | 40 | 275 | 0.0 | 1.0 | 0.00 | 0.00 | 0.00 | 72 | 1012.0 |
| 20260508225739 | 41 | 259 | 0.0 | 1.0 | 0.00 | 0.00 | 0.00 | 70 | 1012.0 |
| 20260508225240 | 41 | 276 | 1.0 | 1.0 | 0.00 | 0.00 | 0.00 | 72 | 1012.0 |
| 20260508224739 | 41 | 284 | 1.0 | 2.0 | 0.00 | 0.00 | 0.00 | 71 | 1012.0 |
| 20260508224240 | 41 | 225 | 0.0 | 1.0 | 0.00 | 0.00 | 0.00 | 72 | 1012.0 |
| 20260508223739 | 41 | 286 | 2.0 | 2.0 | 0.00 | 0.00 | 0.00 | 72 | 1012.0 |
| 20260508223239 | 42 | 303 | 1.0 | 2.0 | 0.00 | 0.00 | 0.00 | 70 | 1012.0 |
| 20260508222739 | 42 | 256 | 1.0 | 2.0 | 0.00 | 0.00 | 0.00 | 70 | 1012.0 |
| 20260508222239 | 42 | 248 | 1.0 | 2.0 | 0.00 | 0.00 | 0.00 | 70 | 1011.0 |
| 20260508221739 | 43 | 283 | 2.0 | 2.0 | 0.00 | 0.00 | 0.00 | 70 | 1011.0 |
| 20260508221240 | 43 | 282 | 1.0 | 2.0 | 0.00 | 0.00 | 0.00 | 69 | 1011.0 |
| 20260508220739 | 45 | 324 | 1.0 | 2.0 | 0.00 | 0.00 | 0.00 | 68 | 1011.0 |
| 20260508220239 | 46 | 274 | 0.0 | 2.0 | 0.00 | 0.00 | 0.00 | 65 | 1011.0 |
| 20260508215739 | 47 | 289 | 1.0 | 3.0 | 0.00 | 0.00 | 0.00 | 60 | 1011.0 |
| 20260508215239 | 48 | 275 | 0.0 | 1.0 | 0.00 | 0.00 | 0.00 | 54 | 1011.0 |
| 20260508214740 | 49 | 286 | 2.0 | 3.0 | 0.00 | 0.00 | 0.00 | 56 | 1011.0 |
| 20260508214239 | 50 | 0 | 0.0 | 0.0 | 0.00 | 0.00 | 0.00 | 49 | 1011.0 |
| 20260508213739 | 51 | 303 | 1.0 | 2.0 | 0.00 | 0.00 | 0.00 | 44 | 1011.0 |
| 20260508213239 | 53 | 277 | 1.0 | 2.0 | 0.00 | 0.00 | 0.00 | 39 | 1011.0 |
| 20260508212739 | 53 | 283 | 1.0 | 1.0 | 0.00 | 0.00 | 0.00 | 36 | 1011.0 |
| 20260508212239 | 54 | 309 | 1.0 | 1.0 | 0.00 | 0.00 | 0.00 | 33 | 1011.0 |
| 20260508211739 | 55 | 322 | 1.0 | 2.0 | 0.00 | 0.00 | 0.00 | 32 | 1011.0 |
| 20260508211239 | 56 | 325 | 1.0 | 2.0 | 0.00 | 0.00 | 0.00 | 29 | 1011.0 |
| 20260508210739 | 57 | 273 | 0.0 | 0.0 | 0.00 | 0.00 | 0.00 | 30 | 1011.0 |
| 20260508210239 | 57 | 359 | 1.0 | 4.0 | 0.00 | 0.00 | 0.00 | 28 | 1011.0 |
| 20260508205739 | 58 | 312 | 0.0 | 1.0 | 0.00 | 0.00 | 0.00 | 26 | 1011.0 |
| 20260508205240 | 59 | 133 | 0.0 | 0.0 | 0.00 | 0.00 | 0.00 | 26 | 1011.0 |
| 20260508204740 | 59 | 24 | 0.0 | 1.0 | 0.00 | 0.00 | 0.00 | 24 | 1011.0 |
| 20260508204239 | 59 | 324 | 0.0 | 2.0 | 0.00 | 0.00 | 0.00 | 25 | 1011.0 |
| 20260508203740 | 59 | 346 | 1.0 | 2.0 | 0.00 | 0.00 | 0.00 | 26 | 1011.0 |
| 20260508203240 | 59 | 339 | 2.0 | 3.0 | 0.00 | 0.00 | 0.00 | 24 | 1011.0 |
| 20260508202740 | 59 | 321 | 1.0 | 3.0 | 0.00 | 0.00 | 0.00 | 26 | 1011.0 |
| 20260508202240 | 59 | 349 | 2.0 | 3.0 | 0.00 | 0.00 | 0.00 | 24 | 1011.0 |
| 20260508201741 | 59 | 339 | 2.0 | 3.0 | 0.00 | 0.00 | 0.00 | 26 | 1011.0 |
| 20260508201239 | 59 | 345 | 2.0 | 4.0 | 0.00 | 0.00 | 0.00 | 25 | 1011.0 |
| 20260508200740 | 59 | 357 | 3.0 | 5.0 | 0.00 | 0.00 | 0.00 | 24 | 1011.0 |
| 20260508200240 | 60 | 40 | 1.0 | 4.0 | 0.00 | 0.00 | 0.00 | 23 | 1011.0 |
| 20260508195740 | 60 | 40 | 2.0 | 4.0 | 0.00 | 0.00 | 0.00 | 25 | 1011.0 |
| 20260508195239 | 60 | 6 | 2.0 | 2.0 | 0.00 | 0.00 | 0.00 | 24 | 1011.0 |
| 20260508194739 | 60 | 348 | 2.0 | 4.0 | 0.00 | 0.00 | 0.00 | 25 | 1011.0 |
| 20260508194239 | 61 | 0 | 1.0 | 2.0 | 0.00 | 0.00 | 0.00 | 25 | 1011.0 |
| 20260508193741 | 61 | 334 | 3.0 | 4.0 | 0.00 | 0.00 | 0.00 | 23 | 1011.0 |
| 20260508193239 | 61 | 90 | 1.0 | 3.0 | 0.00 | 0.00 | 0.00 | 27 | 1011.0 |
| 20260508192739 | 61 | 334 | 2.0 | 4.0 | 0.00 | 0.00 | 0.00 | 26 | 1011.0 |
| 20260508191759 | 62 | 341 | 3.0 | 5.0 | 0.00 | 0.00 | 0.00 | 25 | 1011.0 |
| 20260508191239 | 62 | 323 | 4.0 | 6.0 | 0.00 | 0.00 | 0.00 | 25 | 1012.0 |
| 20260508190740 | 62 | 325 | 1.0 | 3.0 | 0.00 | 0.00 | 0.00 | 26 | 1012.0 |
| 20260508190239 | 61 | 35 | 1.0 | 3.0 | 0.00 | 0.00 | 0.00 | 27 | 1012.0 |
| 20260508185739 | 62 | 106 | 3.0 | 6.0 | 0.00 | 0.00 | 0.00 | 27 | 1012.0 |
| 20260508185239 | 61 | 337 | 3.0 | 6.0 | 0.00 | 0.00 | 0.00 | 30 | 1012.0 |
| 20260508184740 | 61 | 351 | 3.0 | 5.0 | 0.00 | 0.00 | 0.00 | 26 | 1012.0 |
| 20260508184239 | 61 | 72 | 2.0 | 3.0 | 0.00 | 0.00 | 0.00 | 26 | 1012.0 |
| 20260508183739 | 60 | 42 | 1.0 | 2.0 | 0.00 | 0.00 | 0.00 | 26 | 1012.0 |
| 20260508183239 | 60 | 101 | 2.0 | 4.0 | 0.00 | 0.00 | 0.00 | 28 | 1012.0 |
| 20260508182739 | 60 | 133 | 1.0 | 2.0 | 0.00 | 0.00 | 0.00 | 27 | 1012.0 |
| 20260508182239 | 60 | 150 | 3.0 | 4.0 | 0.00 | 0.00 | 0.00 | 24 | 1012.0 |
| 20260508181740 | 60 | 83 | 1.0 | 2.0 | 0.00 | 0.00 | 0.00 | 26 | 1012.0 |
| 20260508181241 | 59 | 315 | 2.0 | 5.0 | 0.00 | 0.00 | 0.00 | 28 | 1012.0 |
| 20260508180739 | 59 | 264 | 3.0 | 5.0 | 0.00 | 0.00 | 0.00 | 29 | 1012.0 |
| 20260508180239 | 59 | 219 | 2.0 | 4.0 | 0.00 | 0.00 | 0.00 | 27 | 1012.0 |
| 20260508175739 | 59 | 54 | 2.0 | 3.0 | 0.00 | 0.00 | 0.00 | 28 | 1012.0 |
| 20260508175240 | 59 | 334 | 1.0 | 3.0 | 0.00 | 0.00 | 0.00 | 30 | 1012.0 |
| 20260508174739 | 59 | 335 | 2.0 | 4.0 | 0.00 | 0.00 | 0.00 | 28 | 1012.0 |
| 20260508174239 | 58 | 288 | 1.0 | 3.0 | 0.00 | 0.00 | 0.00 | 30 | 1013.0 |
| 20260508173740 | 58 | 248 | 3.0 | 5.0 | 0.00 | 0.00 | 0.00 | 27 | 1013.0 |
| 20260508173239 | 59 | 267 | 4.0 | 7.0 | 0.00 | 0.00 | 0.00 | 29 | 1013.0 |
| 20260508172743 | 59 | 355 | 2.0 | 4.0 | 0.00 | 0.00 | 0.00 | 28 | 1013.0 |
| 20260508172240 | 59 | 341 | 0.0 | 3.0 | 0.00 | 0.00 | 0.00 | 30 | 1013.0 |
| 20260508171739 | 58 | 311 | 2.0 | 3.0 | 0.00 | 0.00 | 0.00 | 29 | 1013.0 |
| 20260508171239 | 57 | 156 | 2.0 | 3.0 | 0.00 | 0.00 | 0.00 | 28 | 1013.0 |
| 20260508170739 | 57 | 128 | 3.0 | 6.0 | 0.00 | 0.00 | 0.00 | 31 | 1013.0 |
| 20260508170239 | 57 | 124 | 2.0 | 3.0 | 0.00 | 0.00 | 0.00 | 27 | 1013.0 |
| 20260508165740 | 57 | 94 | 2.0 | 4.0 | 0.00 | 0.00 | 0.00 | 28 | 1013.0 |
| 20260508165239 | 58 | 67 | 2.0 | 3.0 | 0.00 | 0.00 | 0.00 | 30 | 1014.0 |
| 20260508164739 | 57 | 36 | 2.0 | 3.0 | 0.00 | 0.00 | 0.00 | 31 | 1014.0 |
| 20260508164239 | 58 | 139 | 3.0 | 6.0 | 0.00 | 0.00 | 0.00 | 28 | 1014.0 |
| 20260508163741 | 57 | 284 | 2.0 | 4.0 | 0.00 | 0.00 | 0.00 | 33 | 1014.0 |
| 20260508163239 | 56 | 322 | 2.0 | 3.0 | 0.00 | 0.00 | 0.00 | 32 | 1014.0 |
| 20260508162739 | 56 | 290 | 2.0 | 4.0 | 0.00 | 0.00 | 0.00 | 31 | 1014.0 |
| 20260508162241 | 55 | 123 | 1.0 | 3.0 | 0.00 | 0.00 | 0.00 | 30 | 1014.0 |
| 20260508161739 | 55 | 351 | 4.0 | 5.0 | 0.00 | 0.00 | 0.00 | 31 | 1014.0 |
| 20260508161240 | 55 | 356 | 2.0 | 5.0 | 0.00 | 0.00 | 0.00 | 31 | 1015.0 |
| 20260508160740 | 55 | 315 | 2.0 | 3.0 | 0.00 | 0.00 | 0.00 | 32 | 1015.0 |
| 20260508160240 | 55 | 348 | 3.0 | 6.0 | 0.00 | 0.00 | 0.00 | 32 | 1015.0 |
| 20260508155741 | 55 | 139 | 2.0 | 5.0 | 0.00 | 0.00 | 0.00 | 29 | 1015.0 |
| 20260508155240 | 54 | 341 | 1.0 | 3.0 | 0.00 | 0.00 | 0.00 | 30 | 1015.0 |
| 20260508154739 | 53 | 343 | 2.0 | 4.0 | 0.00 | 0.00 | 0.00 | 32 | 1015.0 |
| 20260508154239 | 53 | 117 | 2.0 | 3.0 | 0.00 | 0.00 | 0.00 | 30 | 1015.0 |
| 20260508153740 | 53 | 143 | 2.0 | 4.0 | 0.00 | 0.00 | 0.00 | 31 | 1015.0 |
| 20260508153240 | 53 | 81 | 2.0 | 5.0 | 0.00 | 0.00 | 0.00 | 31 | 1015.0 |
| 20260508152742 | 52 | 7 | 5.0 | 6.0 | 0.00 | 0.00 | 0.00 | 31 | 1015.0 |
| 20260508152240 | 52 | 148 | 3.0 | 4.0 | 0.00 | 0.00 | 0.00 | 30 | 1015.0 |
| 20260508151739 | 52 | 335 | 2.0 | 5.0 | 0.00 | 0.00 | 0.00 | 33 | 1016.0 |
| 20260508151240 | 52 | 61 | 1.0 | 4.0 | 0.00 | 0.00 | 0.00 | 34 | 1016.0 |
| 20260508150739 | 51 | 80 | 1.0 | 2.0 | 0.00 | 0.00 | 0.00 | 33 | 1016.0 |
| 20260508150241 | 51 | 161 | 0.0 | 1.0 | 0.00 | 0.00 | 0.00 | 31 | 1016.0 |
| 20260508145740 | 51 | 22 | 3.0 | 6.0 | 0.00 | 0.00 | 0.00 | 33 | 1016.0 |
| 20260508145240 | 51 | 338 | 3.0 | 6.0 | 0.00 | 0.00 | 0.00 | 33 | 1016.0 |
| 20260508144740 | 51 | 1 | 4.0 | 6.0 | 0.00 | 0.00 | 0.00 | 33 | 1016.0 |
| 20260508144239 | 51 | 10 | 2.0 | 5.0 | 0.00 | 0.00 | 0.00 | 35 | 1016.0 |
| 20260508143739 | 51 | 326 | 2.0 | 3.0 | 0.00 | 0.00 | 0.00 | 33 | 1016.0 |
| 20260508143240 | 51 | 43 | 1.0 | 3.0 | 0.00 | 0.00 | 0.00 | 33 | 1016.0 |
| 20260508142739 | 51 | 33 | 3.0 | 5.0 | 0.00 | 0.00 | 0.00 | 33 | 1017.0 |
| 20260508142239 | 51 | 76 | 2.0 | 4.0 | 0.00 | 0.00 | 0.00 | 31 | 1017.0 |
| 20260508141740 | 51 | 71 | 1.0 | 3.0 | 0.00 | 0.00 | 0.00 | 36 | 1017.0 |
| 20260508141239 | 51 | 333 | 2.0 | 4.0 | 0.00 | 0.00 | 0.00 | 35 | 1017.0 |
| 20260508140739 | 51 | 13 | 3.0 | 7.0 | 0.00 | 0.00 | 0.00 | 34 | 1017.0 |
| 20260508140239 | 51 | 289 | 2.0 | 4.0 | 0.00 | 0.00 | 0.00 | 33 | 1017.0 |
| 20260508135740 | 51 | 158 | 2.0 | 3.0 | 0.00 | 0.00 | 0.00 | 33 | 1017.0 |
| 20260508135240 | 51 | 342 | 2.0 | 4.0 | 0.00 | 0.00 | 0.00 | 39 | 1016.0 |
| 20260508134740 | 50 | 31 | 3.0 | 5.0 | 0.00 | 0.00 | 0.00 | 37 | 1016.0 |
| 20260508134239 | 49 | 159 | 0.0 | 2.0 | 0.00 | 0.00 | 0.00 | 36 | 1016.0 |
| 20260508133740 | 49 | 43 | 1.0 | 3.0 | 0.00 | 0.00 | 0.00 | 38 | 1016.0 |
| 20260508133239 | 49 | 84 | 2.0 | 3.0 | 0.00 | 0.00 | 0.00 | 39 | 1016.0 |
| 20260508132739 | 48 | 140 | 1.0 | 3.0 | 0.00 | 0.00 | 0.00 | 38 | 1016.0 |
| 20260508132240 | 48 | 163 | 1.0 | 3.0 | 0.00 | 0.00 | 0.00 | 40 | 1016.0 |
| 20260508131739 | 48 | 41 | 2.0 | 5.0 | 0.00 | 0.00 | 0.00 | 40 | 1016.0 |
| 20260508131239 | 48 | 122 | 1.0 | 3.0 | 0.00 | 0.00 | 0.00 | 39 | 1016.0 |
| 20260508130739 | 47 | 348 | 0.0 | 2.0 | 0.00 | 0.00 | 0.00 | 41 | 1016.0 |
| 20260508130242 | 47 | 125 | 0.0 | 1.0 | 0.00 | 0.00 | 0.00 | 40 | 1016.0 |
| 20260508125739 | 46 | 160 | 2.0 | 2.0 | 0.00 | 0.00 | 0.00 | 39 | 1016.0 |
| 20260508125240 | 46 | 84 | 1.0 | 2.0 | 0.00 | 0.00 | 0.00 | 41 | 1016.0 |
| 20260508124740 | 46 | 8 | 0.0 | 2.0 | 0.00 | 0.00 | 0.00 | 42 | 1016.0 |
| 20260508124239 | 46 | 128 | 1.0 | 2.0 | 0.00 | 0.00 | 0.00 | 41 | 1016.0 |
| 20260508123739 | 45 | 132 | 1.0 | 4.0 | 0.00 | 0.00 | 0.00 | 42 | 1016.0 |
| 20260508123239 | 45 | 39 | 1.0 | 3.0 | 0.00 | 0.00 | 0.00 | 42 | 1016.0 |
| 20260508122739 | 44 | 11 | 0.0 | 2.0 | 0.00 | 0.00 | 0.00 | 47 | 1016.0 |
| 20260508122240 | 44 | 148 | 4.0 | 6.0 | 0.00 | 0.00 | 0.00 | 43 | 1016.0 |
| 20260508121740 | 43 | 103 | 1.0 | 2.0 | 0.00 | 0.00 | 0.00 | 44 | 1016.0 |
| 20260508121241 | 43 | 161 | 2.0 | 2.0 | 0.00 | 0.00 | 0.00 | 43 | 1016.0 |
| 20260508120739 | 42 | 135 | 1.0 | 3.0 | 0.00 | 0.00 | 0.00 | 45 | 1016.0 |
| 20260508120239 | 40 | 0 | 0.0 | 0.0 | 0.00 | 0.00 | 0.00 | 47 | 1016.0 |
| 20260508115739 | 39 | 326 | 1.0 | 2.0 | 0.00 | 0.00 | 0.00 | 51 | 1016.0 |
| 20260508115240 | 38 | 237 | 1.0 | 2.0 | 0.00 | 0.00 | 0.00 | 51 | 1016.0 |
| 20260508114739 | 37 | 184 | 1.0 | 3.0 | 0.00 | 0.00 | 0.00 | 55 | 1015.0 |
| 20260508114239 | 36 | 192 | 2.0 | 4.0 | 0.00 | 0.00 | 0.00 | 56 | 1015.0 |
| 20260508113740 | 36 | 209 | 1.0 | 3.0 | 0.00 | 0.00 | 0.00 | 56 | 1015.0 |
| 20260508113240 | 36 | 244 | 1.0 | 2.0 | 0.00 | 0.00 | 0.00 | 55 | 1015.0 |
| 20260508112739 | 36 | 266 | 2.0 | 2.0 | 0.00 | 0.00 | 0.00 | 56 | 1015.0 |
| 20260508112241 | 36 | 225 | 1.0 | 2.0 | 0.00 | 0.00 | 0.00 | 57 | 1015.0 |
| 20260508111739 | 36 | 159 | 1.0 | 2.0 | 0.00 | 0.00 | 0.00 | 55 | 1015.0 |
| 20260508111241 | 36 | 309 | 1.0 | 1.0 | 0.00 | 0.00 | 0.00 | 55 | 1015.0 |
| 20260508110740 | 36 | 177 | 1.0 | 2.0 | 0.00 | 0.00 | 0.00 | 53 | 1015.0 |
| 20260508110239 | 36 | 238 | 1.0 | 2.0 | 0.00 | 0.00 | 0.00 | 56 | 1015.0 |
| 20260508105739 | 36 | 163 | 1.0 | 2.0 | 0.00 | 0.00 | 0.00 | 56 | 1015.0 |
| 20260508105239 | 36 | 206 | 2.0 | 3.0 | 0.00 | 0.00 | 0.00 | 56 | 1015.0 |
| 20260508104740 | 36 | 211 | 2.0 | 3.0 | 0.00 | 0.00 | 0.00 | 55 | 1015.0 |
| 20260508104240 | 36 | 245 | 0.0 | 1.0 | 0.00 | 0.00 | 0.00 | 55 | 1015.0 |
| 20260508103740 | 36 | 207 | 0.0 | 0.0 | 0.00 | 0.00 | 0.00 | 55 | 1015.0 |
| 20260508103239 | 36 | 191 | 2.0 | 3.0 | 0.00 | 0.00 | 0.00 | 54 | 1015.0 |
| 20260508102739 | 37 | 215 | 2.0 | 2.0 | 0.00 | 0.00 | 0.00 | 53 | 1015.0 |
| 20260508102240 | 38 | 182 | 1.0 | 2.0 | 0.00 | 0.00 | 0.00 | 53 | 1015.0 |
| 20260508101739 | 38 | 214 | 2.0 | 2.0 | 0.00 | 0.00 | 0.00 | 51 | 1015.0 |
| 20260508101241 | 39 | 254 | 1.0 | 2.0 | 0.00 | 0.00 | 0.00 | 47 | 1015.0 |
| 20260508100740 | 40 | 0 | 0.0 | 0.0 | 0.00 | 0.00 | 0.00 | 45 | 1015.0 |
| 20260508100240 | 40 | 34 | 1.0 | 1.0 | 0.00 | 0.00 | 0.00 | 44 | 1015.0 |
| 20260508095739 | 39 | 94 | 1.0 | 2.0 | 0.00 | 0.00 | 0.00 | 43 | 1015.0 |
| 20260508095239 | 39 | 104 | 2.0 | 3.0 | 0.00 | 0.00 | 0.00 | 45 | 1015.0 |
| 20260508094740 | 39 | 135 | 1.0 | 1.0 | 0.00 | 0.00 | 0.00 | 45 | 1015.0 |
| 20260508094239 | 40 | 173 | 0.0 | 0.0 | 0.00 | 0.00 | 0.00 | 46 | 1015.0 |
| 20260508093739 | 40 | 0 | 0.0 | 0.0 | 0.00 | 0.00 | 0.00 | 45 | 1015.0 |
| 20260508093239 | 41 | 197 | 2.0 | 4.0 | 0.00 | 0.00 | 0.00 | 41 | 1015.0 |
| 20260508092740 | 41 | 304 | 2.0 | 3.0 | 0.00 | 0.00 | 0.00 | 40 | 1015.0 |
| 20260508092239 | 42 | 301 | 2.0 | 3.0 | 0.00 | 0.00 | 0.00 | 40 | 1014.0 |
| 20260508091739 | 42 | 9 | 2.0 | 3.0 | 0.00 | 0.00 | 0.00 | 39 | 1014.0 |
| 20260508091240 | 42 | 39 | 4.0 | 7.0 | 0.00 | 0.00 | 0.00 | 39 | 1014.0 |
| 20260508090739 | 43 | 3 | 3.0 | 6.0 | 0.00 | 0.00 | 0.00 | 37 | 1014.0 |
| 20260508090240 | 43 | 353 | 2.0 | 6.0 | 0.00 | 0.00 | 0.00 | 37 | 1014.0 |
| 20260508085739 | 43 | 30 | 4.0 | 6.0 | 0.00 | 0.00 | 0.00 | 35 | 1014.0 |
| 20260508085239 | 43 | 15 | 4.0 | 6.0 | 0.00 | 0.00 | 0.00 | 34 | 1014.0 |
| 20260508084740 | 43 | 15 | 3.0 | 9.0 | 0.00 | 0.00 | 0.00 | 33 | 1014.0 |
| 20260508084239 | 43 | 0 | 2.0 | 4.0 | 0.00 | 0.00 | 0.00 | 33 | 1014.0 |
| 20260508083740 | 44 | 8 | 2.0 | 6.0 | 0.00 | 0.00 | 0.00 | 30 | 1014.0 |
| 20260508083240 | 44 | 19 | 3.0 | 6.0 | 0.00 | 0.00 | 0.00 | 28 | 1014.0 |
| 20260508082741 | 44 | 32 | 4.0 | 7.0 | 0.00 | 0.00 | 0.00 | 27 | 1014.0 |
| 20260508082239 | 44 | 34 | 2.0 | 5.0 | 0.00 | 0.00 | 0.00 | 26 | 1014.0 |
| 20260508081741 | 45 | 47 | 4.0 | 7.0 | 0.00 | 0.00 | 0.00 | 26 | 1014.0 |
| 20260508081239 | 44 | 31 | 3.0 | 8.0 | 0.00 | 0.00 | 0.00 | 27 | 1014.0 |
| 20260508080740 | 44 | 357 | 6.0 | 10.0 | 0.00 | 0.00 | 0.00 | 27 | 1014.0 |
| 20260508080239 | 44 | 6 | 3.0 | 5.0 | 0.00 | 0.00 | 0.00 | 27 | 1014.0 |
| 20260508075739 | 44 | 0 | 3.0 | 8.0 | 0.00 | 0.00 | 0.00 | 28 | 1014.0 |
| 20260508075239 | 44 | 6 | 4.0 | 7.0 | 0.00 | 0.00 | 0.00 | 27 | 1014.0 |
| 20260508074739 | 44 | 2 | 5.0 | 9.0 | 0.00 | 0.00 | 0.00 | 27 | 1014.0 |
| 20260508074240 | 44 | 2 | 4.0 | 9.0 | 0.00 | 0.00 | 0.00 | 28 | 1014.0 |
| 20260508073739 | 44 | 13 | 5.0 | 12.0 | 0.00 | 0.00 | 0.00 | 27 | 1014.0 |
| 20260508073242 | 44 | 21 | 3.0 | 6.0 | 0.00 | 0.00 | 0.00 | 27 | 1014.0 |
| 20260508072739 | 44 | 12 | 4.0 | 6.0 | 0.00 | 0.00 | 0.00 | 29 | 1014.0 |
| 20260508072239 | 44 | 13 | 2.0 | 5.0 | 0.00 | 0.00 | 0.00 | 29 | 1014.0 |
| 20260508071739 | 44 | 21 | 5.0 | 14.0 | 0.00 | 0.00 | 0.00 | 29 | 1014.0 |
| 20260508071240 | 44 | 52 | 2.0 | 5.0 | 0.00 | 0.00 | 0.00 | 29 | 1014.0 |
| 20260508070739 | 44 | 5 | 6.0 | 10.0 | 0.00 | 0.00 | 0.00 | 28 | 1014.0 |
| 20260508070240 | 43 | 359 | 4.0 | 11.0 | 0.00 | 0.00 | 0.00 | 30 | 1014.0 |
| 20260508065739 | 42 | 9 | 4.0 | 6.0 | 0.00 | 0.00 | 0.00 | 31 | 1014.0 |
| 20260508065243 | 41 | 26 | 3.0 | 7.0 | 0.00 | 0.00 | 0.00 | 36 | 1014.0 |
| 20260508064740 | 40 | 347 | 3.0 | 6.0 | 0.00 | 0.00 | 0.00 | 39 | 1014.0 |
| 20260508064242 | 41 | 100 | 0.0 | 1.0 | 0.00 | 0.00 | 0.00 | 36 | 1014.0 |
| 20260508063740 | 40 | 17 | 1.0 | 2.0 | 0.00 | 0.00 | 0.00 | 39 | 1014.0 |
| 20260508063240 | 39 | 175 | 1.0 | 3.0 | 0.00 | 0.00 | 0.00 | 43 | 1014.0 |
| 20260508062739 | 37 | 120 | 2.0 | 4.0 | 0.00 | 0.00 | 0.00 | 54 | 1014.0 |
| 20260508062239 | 36 | 168 | 2.0 | 5.0 | 0.00 | 0.00 | 0.00 | 57 | 1014.0 |
| 20260508061739 | 35 | 161 | 3.0 | 4.0 | 0.00 | 0.00 | 0.00 | 63 | 1014.0 |
| 20260508061239 | 35 | 212 | 2.0 | 4.0 | 0.00 | 0.00 | 0.00 | 64 | 1014.0 |
| 20260508060739 | 35 | 199 | 3.0 | 4.0 | 0.00 | 0.00 | 0.00 | 70 | 1014.0 |
| 20260508060239 | 35 | 192 | 1.0 | 2.0 | 0.00 | 0.00 | 0.00 | 68 | 1014.0 |
| 20260508055741 | 34 | 191 | 2.0 | 3.0 | 0.00 | 0.00 | 0.00 | 77 | 1014.0 |
| 20260508055239 | 34 | 242 | 1.0 | 2.0 | 0.00 | 0.00 | 0.00 | 77 | 1014.0 |
| 20260508054739 | 34 | 200 | 3.0 | 4.0 | 0.00 | 0.00 | 0.00 | 73 | 1014.0 |
| 20260508054240 | 33 | 132 | 0.0 | 1.0 | 0.00 | 0.00 | 0.00 | 77 | 1014.0 |
| 20260508053739 | 34 | 326 | 1.0 | 3.0 | 0.00 | 0.00 | 0.00 | 79 | 1014.0 |
| 20260508053239 | 34 | 302 | 1.0 | 2.0 | 0.00 | 0.00 | 0.00 | 79 | 1014.0 |
| 20260508052739 | 35 | 235 | 1.0 | 2.0 | 0.00 | 0.00 | 0.00 | 73 | 1014.0 |
| 20260508052239 | 35 | 206 | 1.0 | 3.0 | 0.00 | 0.00 | 0.00 | 73 | 1014.0 |
| 20260508051739 | 34 | 199 | 1.0 | 2.0 | 0.00 | 0.00 | 0.00 | 73 | 1014.0 |
| 20260508051239 | 33 | 198 | 2.0 | 3.0 | 0.00 | 0.00 | 0.00 | 76 | 1014.0 |
| 20260508050741 | 33 | 0 | 0.0 | 0.0 | 0.00 | 0.00 | 0.00 | 80 | 1014.0 |
| 20260508050239 | 34 | 0 | 0.0 | 0.0 | 0.00 | 0.00 | 0.00 | 75 | 1014.0 |
| 20260508045739 | 33 | 210 | 2.0 | 4.0 | 0.00 | 0.00 | 0.00 | 76 | 1014.0 |
| 20260508045239 | 32 | 208 | 2.0 | 4.0 | 0.00 | 0.00 | 0.00 | 77 | 1014.0 |
| 20260508044744 | 32 | 216 | 1.0 | 2.0 | 0.00 | 0.00 | 0.00 | 83 | 1014.0 |
| 20260508044239 | 32 | 0 | 0.0 | 0.0 | 0.00 | 0.00 | 0.00 | 82 | 1014.0 |
| 20260508043739 | 32 | 239 | 1.0 | 1.0 | 0.00 | 0.00 | 0.00 | 81 | 1014.0 |
| 20260508043239 | 32 | 281 | 2.0 | 2.0 | 0.00 | 0.00 | 0.00 | 80 | 1014.0 |
| 20260508042739 | 32 | 235 | 0.0 | 1.0 | 0.00 | 0.00 | 0.00 | 80 | 1014.0 |
| 20260508042239 | 32 | 293 | 1.0 | 2.0 | 0.00 | 0.00 | 0.00 | 81 | 1014.0 |
| 20260508041739 | 33 | 231 | 1.0 | 2.0 | 0.00 | 0.00 | 0.00 | 79 | 1014.0 |
| 20260508041239 | 33 | 257 | 0.0 | 1.0 | 0.00 | 0.00 | 0.00 | 80 | 1014.0 |
| 20260508040739 | 33 | 304 | 0.0 | 1.0 | 0.00 | 0.00 | 0.00 | 81 | 1014.0 |
| 20260508040239 | 33 | 263 | 2.0 | 3.0 | 0.00 | 0.00 | 0.00 | 79 | 1014.0 |
| 20260508035739 | 33 | 359 | 2.0 | 2.0 | 0.00 | 0.00 | 0.00 | 80 | 1014.0 |
| 20260508035239 | 33 | 319 | 2.0 | 3.0 | 0.00 | 0.00 | 0.00 | 82 | 1014.0 |
| 20260508034739 | 33 | 310 | 1.0 | 2.0 | 0.00 | 0.00 | 0.00 | 83 | 1014.0 |
| 20260508034240 | 33 | 316 | 2.0 | 3.0 | 0.00 | 0.00 | 0.00 | 82 | 1014.0 |
| 20260508033740 | 33 | 0 | 0.0 | 0.0 | 0.00 | 0.00 | 0.00 | 82 | 1014.0 |
| 20260508033239 | 34 | 316 | 1.0 | 2.0 | 0.00 | 0.00 | 0.00 | 80 | 1014.0 |
| 20260508032740 | 34 | 314 | 1.0 | 2.0 | 0.00 | 0.00 | 0.00 | 79 | 1014.0 |
| 20260508032239 | 34 | 286 | 1.0 | 2.0 | 0.00 | 0.00 | 0.00 | 79 | 1014.0 |
| 20260508031740 | 35 | 315 | 1.0 | 2.0 | 0.00 | 0.00 | 0.00 | 79 | 1014.0 |
| 20260508031239 | 35 | 220 | 2.0 | 2.0 | 0.00 | 0.00 | 0.00 | 79 | 1014.0 |
| 20260508030740 | 36 | 289 | 0.0 | 2.0 | 0.00 | 0.00 | 0.00 | 76 | 1014.0 |
| 20260508030240 | 36 | 223 | 2.0 | 2.0 | 0.00 | 0.00 | 0.00 | 72 | 1014.0 |
| 20260508025739 | 37 | 188 | 0.0 | 2.0 | 0.00 | 0.00 | 0.03 | 68 | 1014.0 |
| 20260508025240 | 37 | 352 | 1.0 | 2.0 | 0.00 | 0.00 | 0.03 | 68 | 1014.0 |
| 20260508024740 | 38 | 259 | 0.0 | 0.0 | 0.00 | 0.00 | 0.03 | 68 | 1014.0 |
| 20260508024239 | 38 | 345 | 2.0 | 2.0 | 0.00 | 0.00 | 0.03 | 66 | 1014.0 |
| 20260508023740 | 37 | 150 | 1.0 | 2.0 | 0.00 | 0.00 | 0.03 | 67 | 1014.0 |
| 20260508023239 | 37 | 288 | 1.0 | 2.0 | 0.00 | 0.00 | 0.03 | 67 | 1014.0 |
| 20260508022740 | 37 | 358 | 2.0 | 3.0 | 0.00 | 0.00 | 0.03 | 71 | 1014.0 |